createdAt,value
2023-05-16T00:01:24.814Z,9.70
2023-05-16T00:03:51.250Z,9.37
2023-05-16T00:06:17.959Z,9.10
2023-05-16T00:08:44.290Z,10.13
2023-05-16T00:11:10.665Z,10.80
2023-05-16T00:13:37.526Z,8.63
2023-05-16T00:16:05.122Z,7.10
2023-05-16T00:18:31.487Z,7.07
2023-05-16T00:20:58.141Z,7.03
2023-05-16T00:23:24.515Z,6.77
2023-05-16T00:25:50.939Z,7.23
2023-05-16T00:28:17.260Z,7.70
2023-05-16T00:30:43.619Z,6.53
2023-05-16T00:33:10.106Z,6.87
2023-05-16T00:35:36.596Z,5.90
2023-05-16T00:38:03.570Z,5.27
2023-05-16T00:40:29.941Z,4.90
2023-05-16T00:42:56.266Z,5.47
2023-05-16T00:45:22.599Z,5.23
2023-05-16T00:47:49.117Z,6.10
2023-05-16T00:50:16.139Z,4.97
2023-05-16T00:52:43.603Z,6.00
2023-05-16T00:55:13.074Z,5.33
2023-05-16T00:57:41.072Z,5.67
2023-05-16T01:00:10.606Z,5.33
2023-05-16T01:02:37.235Z,4.77
2023-05-16T01:05:08.366Z,6.37
2023-05-16T01:07:37.735Z,5.70
2023-05-16T01:10:06.483Z,4.70
2023-05-16T01:12:48.602Z,5.50
2023-05-16T01:15:24.978Z,5.30
2023-05-16T01:18:23.493Z,5.03
2023-05-16T01:20:56.883Z,4.77
2023-05-16T01:23:31.263Z,4.47
2023-05-16T01:26:18.822Z,4.33
2023-05-16T01:28:49.985Z,7.97
2023-05-16T01:31:19.074Z,4.40
2023-05-16T01:33:45.727Z,7.03
2023-05-16T01:36:25.944Z,4.73
2023-05-16T01:39:03.294Z,4.17
2023-05-16T01:41:59.537Z,15.13
2023-05-16T01:44:37.454Z,4.73
2023-05-16T01:47:09.624Z,4.57
2023-05-16T01:49:41.287Z,5.17
2023-05-16T01:52:16.091Z,6.93
2023-05-16T01:54:45.702Z,5.27
2023-05-16T01:57:12.940Z,5.47
2023-05-16T01:59:42.704Z,10.87
2023-05-16T02:02:10.278Z,14.37
2023-05-16T02:04:37.942Z,8.63
2023-05-16T02:07:04.513Z,5.67
2023-05-16T02:09:31.191Z,7.43
2023-05-16T02:11:57.535Z,10.03
2023-05-16T02:14:25.757Z,4.60
2023-05-16T02:16:52.231Z,4.27
2023-05-16T02:19:18.820Z,5.67
2023-05-16T02:21:45.381Z,6.70
2023-05-16T02:24:11.719Z,7.10
2023-05-16T02:26:38.034Z,5.70
2023-05-16T02:29:04.440Z,5.00
2023-05-16T02:31:32.875Z,7.70
2023-05-16T02:33:59.815Z,7.97
2023-05-16T02:36:26.904Z,5.97
2023-05-16T02:38:53.863Z,14.50
2023-05-16T02:41:22.216Z,9.13
2023-05-16T02:43:49.449Z,9.90
2023-05-16T02:46:27.642Z,14.33
2023-05-16T02:48:54.633Z,6.67
2023-05-16T02:51:22.720Z,8.30
2023-05-16T02:53:49.517Z,7.30
2023-05-16T02:56:16.506Z,6.27
2023-05-16T02:58:43.404Z,11.57
2023-05-16T03:01:09.957Z,14.27
2023-05-16T03:03:37.659Z,8.80
2023-05-16T03:06:04.244Z,9.93
2023-05-16T03:08:32.661Z,10.73
2023-05-16T03:10:59.123Z,14.63
2023-05-16T03:13:25.491Z,18.33
2023-05-16T03:15:53.255Z,12.67
2023-05-16T03:18:19.758Z,7.80
2023-05-16T03:20:46.128Z,9.17
2023-05-16T03:23:12.726Z,15.60
2023-05-16T03:25:39.238Z,10.73
2023-05-16T03:28:07.772Z,20.00
2023-05-16T03:30:34.774Z,9.00
2023-05-16T03:33:01.365Z,10.73
2023-05-16T03:35:28.918Z,17.60
2023-05-16T03:37:55.640Z,10.77
2023-05-16T03:40:22.105Z,16.27
2023-05-16T03:42:48.429Z,10.03
2023-05-16T03:45:14.813Z,10.17
2023-05-16T03:47:41.387Z,11.73
2023-05-16T03:50:08.260Z,21.47
2023-05-16T03:52:34.662Z,15.63
2023-05-16T03:55:02.915Z,9.57
2023-05-16T03:57:32.396Z,4.67
2023-05-16T03:59:58.950Z,11.67
2023-05-16T04:02:25.880Z,17.50
2023-05-16T04:04:52.383Z,15.57
2023-05-16T04:07:18.773Z,13.37
2023-05-16T04:09:45.114Z,17.50
2023-05-16T04:12:11.469Z,11.87
2023-05-16T04:14:38.091Z,10.03
2023-05-16T04:17:05.044Z,5.23
2023-05-16T04:19:31.535Z,14.20
2023-05-16T04:21:57.883Z,14.93
2023-05-16T04:24:26.491Z,8.43
2023-05-16T04:26:52.888Z,16.00
2023-05-16T04:29:19.521Z,16.27
2023-05-16T04:31:45.914Z,5.13
2023-05-16T04:34:13.028Z,8.33
2023-05-16T04:36:39.425Z,10.27
2023-05-16T04:39:06.210Z,7.73
2023-05-16T04:41:33.641Z,13.20
2023-05-16T04:44:02.344Z,5.23
2023-05-16T04:46:28.773Z,17.33
2023-05-16T04:48:55.449Z,9.83
2023-05-16T04:51:21.787Z,7.47
2023-05-16T04:53:48.585Z,9.50
2023-05-16T04:56:14.946Z,6.70
2023-05-16T04:58:42.909Z,9.73
2023-05-16T05:01:09.475Z,14.23
2023-05-16T05:03:36.339Z,5.60
2023-05-16T05:06:03.020Z,5.30
2023-05-16T05:08:29.349Z,15.80
2023-05-16T05:10:56.319Z,9.20
2023-05-16T05:13:22.711Z,8.20
2023-05-16T05:15:50.264Z,4.30
2023-05-16T05:18:16.669Z,7.17
2023-05-16T05:20:43.404Z,20.23
2023-05-16T05:23:09.814Z,13.90
2023-05-16T05:25:37.905Z,10.40
2023-05-16T05:28:04.458Z,9.97
2023-05-16T05:30:31.170Z,4.93
2023-05-16T05:32:57.559Z,8.37
2023-05-16T05:35:23.914Z,7.73
2023-05-16T05:37:50.639Z,7.93
2023-05-16T05:40:17.085Z,10.43
2023-05-16T05:42:46.092Z,12.20
2023-05-16T05:45:14.583Z,16.80
2023-05-16T05:47:41.218Z,15.43
2023-05-16T05:50:08.863Z,13.40
2023-05-16T05:52:35.311Z,15.97
2023-05-16T05:55:01.762Z,3.67
2023-05-16T05:57:28.127Z,6.23
2023-05-16T05:59:54.460Z,4.43
2023-05-16T06:02:20.826Z,8.57
2023-05-16T06:04:47.356Z,14.33
2023-05-16T06:07:15.906Z,3.73
2023-05-16T06:09:43.444Z,4.70
2023-05-16T06:12:09.876Z,6.50
2023-05-16T06:14:36.202Z,7.47
2023-05-16T06:17:02.577Z,9.23
2023-05-16T06:19:28.981Z,14.27
2023-05-16T06:21:55.511Z,14.07
2023-05-16T06:24:22.091Z,5.87
2023-05-16T06:26:50.012Z,3.77
2023-05-16T06:29:17.239Z,8.87
2023-05-16T06:31:44.607Z,9.23
2023-05-16T06:34:11.153Z,4.20
2023-05-16T06:36:37.575Z,5.57
2023-05-16T06:39:04.888Z,12.37
2023-05-16T06:41:31.346Z,4.00
2023-05-16T06:43:57.763Z,3.97
2023-05-16T06:46:24.267Z,2.83
2023-05-16T06:48:50.822Z,3.77
2023-05-16T06:51:17.255Z,3.57
2023-05-16T06:53:43.619Z,6.37
2023-05-16T06:56:10.010Z,9.77
2023-05-16T06:58:36.533Z,7.30
2023-05-16T07:01:03.131Z,6.63
2023-05-16T07:03:29.669Z,4.47
2023-05-16T07:05:57.262Z,4.60
2023-05-16T07:08:25.837Z,7.63
2023-05-16T07:10:52.199Z,4.73
2023-05-16T07:13:21.304Z,6.43
2023-05-16T07:15:47.652Z,6.93
2023-05-16T07:18:14.150Z,5.73
2023-05-16T07:20:40.661Z,7.40
2023-05-16T07:23:07.052Z,5.43
2023-05-16T07:25:33.568Z,3.23
2023-05-16T07:28:00.868Z,4.87
2023-05-16T07:30:27.308Z,6.07
2023-05-16T07:32:54.084Z,3.17
2023-05-16T07:35:20.629Z,3.50
2023-05-16T07:37:47.446Z,3.30
2023-05-16T07:40:14.425Z,8.27
2023-05-16T07:42:40.822Z,2.07
2023-05-16T07:45:07.615Z,2.80
2023-05-16T07:47:34.429Z,4.03
2023-05-16T07:50:01.029Z,10.33
2023-05-16T07:52:27.601Z,2.53
2023-05-16T07:54:54.043Z,3.23
2023-05-16T07:57:21.654Z,2.10
2023-05-16T07:59:49.823Z,7.10
2023-05-16T08:02:16.951Z,5.60
2023-05-16T08:04:43.318Z,3.30
2023-05-16T08:07:09.785Z,2.33
2023-05-16T08:09:36.197Z,2.33
2023-05-16T08:12:03.725Z,4.43
2023-05-16T08:14:31.950Z,3.53
2023-05-16T08:17:01.432Z,2.37
2023-05-16T08:19:28.055Z,2.13
2023-05-16T08:21:54.919Z,9.37
2023-05-16T08:24:21.344Z,2.60
2023-05-16T08:26:47.739Z,3.90
2023-05-16T08:29:14.328Z,3.90
2023-05-16T08:31:40.881Z,2.63
2023-05-16T08:34:11.547Z,2.07
2023-05-16T08:36:38.188Z,3.30
2023-05-16T08:39:05.073Z,2.60
2023-05-16T08:41:31.643Z,2.00
2023-05-16T08:43:58.180Z,5.80
2023-05-16T08:46:25.936Z,5.17
2023-05-16T08:48:53.862Z,3.63
2023-05-16T08:51:21.118Z,2.73
2023-05-16T08:54:17.113Z,4.87
2023-05-16T08:56:45.029Z,2.80
2023-05-16T08:59:15.058Z,2.77
2023-05-16T09:01:41.900Z,2.93
2023-05-16T09:04:09.513Z,2.00
2023-05-16T09:06:36.795Z,2.23
2023-05-16T09:09:04.604Z,3.43
2023-05-16T09:11:35.515Z,8.23
2023-05-16T09:14:03.728Z,4.67
2023-05-16T09:16:30.236Z,5.83
2023-05-16T09:19:01.718Z,2.37
2023-05-16T09:21:33.606Z,6.00
2023-05-16T09:24:04.857Z,8.40
2023-05-16T09:26:33.153Z,2.53
2023-05-16T09:28:59.682Z,3.73
2023-05-16T09:31:27.959Z,7.20
2023-05-16T09:33:56.441Z,3.30
2023-05-16T09:36:22.853Z,2.60
2023-05-16T09:38:51.650Z,2.93
2023-05-16T09:41:18.354Z,2.77
2023-05-16T09:43:45.140Z,3.17
2023-05-16T09:46:19.964Z,1.90
2023-05-16T09:48:47.516Z,2.10
2023-05-16T09:51:14.845Z,3.37
2023-05-16T09:53:41.846Z,2.87
2023-05-16T09:56:12.529Z,1.80
2023-05-16T09:58:40.815Z,2.17
2023-05-16T10:01:08.837Z,4.50
2023-05-16T10:03:36.872Z,3.43
2023-05-16T10:06:05.801Z,4.47
2023-05-16T10:08:36.407Z,2.80
2023-05-16T10:11:05.702Z,2.70
2023-05-16T10:13:34.532Z,2.37
2023-05-16T10:16:11.687Z,3.30
2023-05-16T10:18:39.702Z,2.80
2023-05-16T10:21:11.612Z,2.47
2023-05-16T10:23:42.444Z,2.73
2023-05-16T10:26:09.795Z,7.67
2023-05-16T10:28:36.314Z,2.67
2023-05-16T10:31:03.070Z,2.80
2023-05-16T10:33:29.720Z,2.93
2023-05-16T10:35:56.759Z,3.57
2023-05-16T10:38:24.445Z,2.20
2023-05-16T10:40:51.492Z,3.03
2023-05-16T10:43:30.274Z,2.43
2023-05-16T10:45:58.854Z,7.83
2023-05-16T10:48:39.276Z,2.07
2023-05-16T10:51:38.593Z,2.87
2023-05-16T10:54:10.726Z,4.10
2023-05-16T10:56:37.567Z,2.60
2023-05-16T10:59:04.949Z,3.30
2023-05-16T11:01:34.938Z,2.00
2023-05-16T11:04:10.146Z,4.63
2023-05-16T11:06:42.828Z,2.60
2023-05-16T11:09:13.412Z,1.90
2023-05-16T11:11:48.619Z,4.10
2023-05-16T11:14:25.620Z,2.87
2023-05-16T11:17:11.013Z,2.57
2023-05-16T11:19:45.201Z,4.63
2023-05-16T11:22:18.705Z,2.60
2023-05-16T11:25:03.111Z,2.03
2023-05-16T11:27:34.301Z,2.23
2023-05-16T11:30:06.767Z,4.13
2023-05-16T11:32:43.269Z,3.30
2023-05-16T11:35:15.300Z,2.50
2023-05-16T11:37:42.820Z,2.03
2023-05-16T11:40:12.083Z,4.40
2023-05-16T11:42:40.302Z,2.87
2023-05-16T11:45:18.322Z,2.60
2023-05-16T11:47:48.201Z,2.37
2023-05-16T11:50:17.498Z,3.90
2023-05-16T11:52:46.549Z,4.33
2023-05-16T11:55:19.254Z,2.63
2023-05-16T11:57:52.358Z,4.20
2023-05-16T12:00:24.898Z,2.20
2023-05-16T12:02:52.051Z,2.53
2023-05-16T12:05:20.736Z,4.00
2023-05-16T12:07:47.757Z,1.90
2023-05-16T12:10:15.916Z,1.70
2023-05-16T12:12:45.341Z,1.97
2023-05-16T12:15:12.604Z,1.50
2023-05-16T12:17:40.770Z,2.53
2023-05-16T12:20:14.287Z,5.60
2023-05-16T12:22:41.553Z,2.27
2023-05-16T12:25:31.950Z,1.40
2023-05-16T12:28:01.508Z,2.93
2023-05-16T12:30:29.738Z,2.00
2023-05-16T12:32:57.844Z,1.97
2023-05-16T12:35:25.761Z,2.47
2023-05-16T12:37:53.072Z,1.67
2023-05-16T12:40:20.627Z,5.93
2023-05-16T12:42:55.947Z,2.63
2023-05-16T12:45:23.159Z,2.10
2023-05-16T12:47:49.993Z,2.33
2023-05-16T12:50:17.577Z,2.83
2023-05-16T12:52:50.809Z,1.90
2023-05-16T12:55:18.454Z,2.10
2023-05-16T12:57:47.680Z,4.33
2023-05-16T13:00:15.865Z,2.10
2023-05-16T13:02:42.343Z,1.40
2023-05-16T13:05:10.146Z,3.70
2023-05-16T13:07:37.347Z,2.07
2023-05-16T13:10:04.310Z,1.60
2023-05-16T13:12:31.030Z,1.90
2023-05-16T13:14:57.689Z,2.23
2023-05-16T13:17:24.083Z,1.40
2023-05-16T13:19:51.341Z,1.30
2023-05-16T13:22:17.996Z,4.30
2023-05-16T13:24:44.439Z,2.33
2023-05-16T13:27:10.847Z,2.73
2023-05-16T13:29:37.349Z,4.40
2023-05-16T13:32:04.344Z,1.30
2023-05-16T13:34:32.094Z,2.37
2023-05-16T13:36:58.483Z,1.90
2023-05-16T13:39:25.014Z,1.97
2023-05-16T13:41:51.965Z,1.90
2023-05-16T13:44:18.714Z,1.80
2023-05-16T13:46:45.819Z,1.67
2023-05-16T13:49:12.242Z,3.40
2023-05-16T13:51:38.619Z,1.87
2023-05-16T13:54:05.024Z,2.50
2023-05-16T13:56:31.407Z,2.73
2023-05-16T13:59:02.230Z,1.90
2023-05-16T14:01:32.830Z,4.70
2023-05-16T14:03:59.325Z,7.57
2023-05-16T14:06:25.814Z,1.70
2023-05-16T14:08:52.200Z,2.10
2023-05-16T14:11:19.814Z,1.20
2023-05-16T14:13:46.518Z,2.90
2023-05-16T14:16:12.980Z,2.63
2023-05-16T14:18:39.515Z,2.60
2023-05-16T14:21:05.996Z,2.13
2023-05-16T14:23:32.384Z,2.17
2023-05-16T14:25:58.917Z,2.33
2023-05-16T14:28:25.289Z,5.93
2023-05-16T14:30:51.709Z,7.30
2023-05-16T14:33:18.162Z,1.70
2023-05-16T14:35:45.010Z,2.23
2023-05-16T14:38:11.452Z,2.00
2023-05-16T14:40:38.252Z,4.87
2023-05-16T14:43:04.684Z,12.73
2023-05-16T14:45:31.284Z,3.03
2023-05-16T14:47:57.728Z,2.17
2023-05-16T14:50:24.184Z,2.13
2023-05-16T14:52:50.577Z,3.10
2023-05-16T14:55:16.972Z,5.47
2023-05-16T14:57:45.501Z,2.20
2023-05-16T15:00:13.303Z,2.27
2023-05-16T15:02:39.793Z,7.00
2023-05-16T15:05:06.798Z,3.93
2023-05-16T15:07:33.202Z,4.07
2023-05-16T15:09:59.614Z,8.17
2023-05-16T15:12:25.989Z,4.10
2023-05-16T15:14:52.488Z,2.73
2023-05-16T15:17:18.918Z,10.70
2023-05-16T15:19:45.562Z,7.13
2023-05-16T15:22:12.024Z,3.37
2023-05-16T15:24:38.495Z,2.63
2023-05-16T15:27:05.296Z,3.27
2023-05-16T15:29:34.372Z,4.00
2023-05-16T15:32:04.704Z,2.33
2023-05-16T15:34:31.978Z,2.77
2023-05-16T15:36:58.826Z,2.40
2023-05-16T15:39:28.161Z,2.40
2023-05-16T15:42:08.579Z,2.93
2023-05-16T15:44:36.122Z,1.93
2023-05-16T15:47:02.604Z,3.87
2023-05-16T15:49:29.033Z,2.97
2023-05-16T15:51:55.439Z,2.47
2023-05-16T15:54:21.837Z,4.20
2023-05-16T15:56:48.367Z,4.17
2023-05-16T15:59:14.832Z,4.73
2023-05-16T16:01:41.307Z,3.00
2023-05-16T16:04:07.898Z,2.50
2023-05-16T16:06:34.338Z,3.63
2023-05-16T16:09:00.875Z,2.80
2023-05-16T16:11:27.518Z,2.50
2023-05-16T16:13:53.907Z,5.13
2023-05-16T16:16:20.322Z,4.20
2023-05-16T16:18:46.855Z,2.93
2023-05-16T16:21:13.448Z,3.70
2023-05-16T16:23:40.453Z,2.40
2023-05-16T16:26:06.895Z,2.10
2023-05-16T16:28:33.328Z,4.93
2023-05-16T16:30:59.804Z,2.83
2023-05-16T16:33:26.233Z,5.10
2023-05-16T16:35:54.469Z,2.47
2023-05-16T16:38:21.370Z,3.30
2023-05-16T16:40:47.749Z,5.37
2023-05-16T16:43:14.844Z,3.77
2023-05-16T16:45:41.303Z,2.97
2023-05-16T16:48:09.190Z,2.63
2023-05-16T16:50:35.644Z,4.47
2023-05-16T16:53:04.146Z,7.67
2023-05-16T16:55:31.097Z,3.27
2023-05-16T16:57:57.725Z,3.00
2023-05-16T17:00:24.456Z,4.03
2023-05-16T17:02:51.167Z,3.27
2023-05-16T17:05:17.826Z,6.20
2023-05-16T17:07:44.345Z,4.10
2023-05-16T17:10:10.922Z,2.53
2023-05-16T17:12:44.327Z,2.43
2023-05-16T17:15:11.763Z,2.80
2023-05-16T17:17:38.461Z,4.23
2023-05-16T17:20:07.160Z,3.50
2023-05-16T17:22:33.765Z,2.80
2023-05-16T17:25:00.143Z,5.57
2023-05-16T17:27:26.562Z,5.77
2023-05-16T17:29:52.977Z,4.10
2023-05-16T17:32:21.290Z,3.80
2023-05-16T17:34:48.146Z,3.07
2023-05-16T17:37:14.629Z,2.43
2023-05-16T17:39:41.004Z,2.90
2023-05-16T17:42:07.541Z,3.07
2023-05-16T17:44:33.977Z,2.40
2023-05-16T17:47:00.504Z,4.60
2023-05-16T17:49:27.071Z,4.63
2023-05-16T17:51:56.528Z,3.80
2023-05-16T17:54:23.957Z,2.63
2023-05-16T17:56:50.780Z,3.37
2023-05-16T17:59:17.683Z,7.83
2023-05-16T18:01:44.054Z,3.40
2023-05-16T18:04:10.748Z,3.10
2023-05-16T18:06:38.201Z,3.90
2023-05-16T18:09:10.144Z,2.97
2023-05-16T18:11:38.829Z,3.43
2023-05-16T18:14:05.379Z,3.30
2023-05-16T18:16:31.852Z,8.33
2023-05-16T18:18:58.506Z,3.40
2023-05-16T18:21:25.192Z,2.10
2023-05-16T18:23:51.714Z,2.13
2023-05-16T18:26:19.122Z,2.00
2023-05-16T18:28:45.829Z,2.80
2023-05-16T18:31:12.396Z,2.03
2023-05-16T18:33:38.903Z,2.50
2023-05-16T18:36:05.594Z,2.30
2023-05-16T18:38:33.611Z,2.90
2023-05-16T18:41:00.428Z,2.13
2023-05-16T18:43:26.900Z,4.80
2023-05-16T18:45:53.336Z,3.83
2023-05-16T18:48:19.867Z,3.70
2023-05-16T18:50:46.646Z,2.60
2023-05-16T18:53:13.117Z,3.13
2023-05-16T18:55:39.594Z,2.40
2023-05-16T18:58:06.871Z,2.17
2023-05-16T19:00:34.199Z,2.40
2023-05-16T19:03:01.206Z,2.37
2023-05-16T19:05:28.186Z,2.40
2023-05-16T19:07:54.776Z,2.00
2023-05-16T19:10:21.260Z,3.20
2023-05-16T19:12:48.945Z,2.83
2023-05-16T19:15:15.540Z,2.90
2023-05-16T19:17:42.073Z,3.83
2023-05-16T19:20:09.364Z,3.00
2023-05-16T19:22:36.010Z,3.40
2023-05-16T19:25:02.705Z,2.43
2023-05-16T19:27:29.122Z,2.43
2023-05-16T19:29:57.049Z,2.23
2023-05-16T19:32:23.589Z,1.90
2023-05-16T19:34:49.979Z,3.23
2023-05-16T19:37:16.426Z,5.03
2023-05-16T19:39:42.787Z,3.37
2023-05-16T19:42:09.169Z,2.33
2023-05-16T19:44:35.599Z,3.90
2023-05-16T19:47:02.256Z,3.00
2023-05-16T19:49:31.540Z,3.03
2023-05-16T19:51:58.061Z,2.63
2023-05-16T19:54:24.520Z,4.30
2023-05-16T19:56:51.005Z,5.13
2023-05-16T19:59:17.490Z,2.67
2023-05-16T20:01:43.989Z,3.63
2023-05-16T20:04:11.421Z,3.70
2023-05-16T20:06:37.947Z,3.50
2023-05-16T20:09:04.352Z,3.60
2023-05-16T20:11:30.754Z,2.10
2023-05-16T20:13:59.440Z,2.00
2023-05-16T20:16:26.957Z,7.13
2023-05-16T20:18:53.488Z,3.73
2023-05-16T20:21:19.933Z,2.10
2023-05-16T20:23:46.325Z,4.63
2023-05-16T20:26:15.756Z,2.53
2023-05-16T20:28:44.952Z,2.53
2023-05-16T20:31:11.326Z,3.27
2023-05-16T20:33:37.748Z,5.03
2023-05-16T20:36:04.373Z,2.93
2023-05-16T20:38:30.913Z,4.63
2023-05-16T20:40:57.565Z,4.53
2023-05-16T20:43:26.478Z,2.53
2023-05-16T20:45:53.162Z,2.50
2023-05-16T20:48:19.601Z,4.00
2023-05-16T20:50:46.115Z,2.43
2023-05-16T20:53:12.620Z,3.00
2023-05-16T20:55:39.010Z,2.73
2023-05-16T20:58:06.080Z,2.47
2023-05-16T21:00:33.591Z,3.03
2023-05-16T21:03:00.044Z,2.27
2023-05-16T21:05:26.562Z,2.37
2023-05-16T21:07:53.231Z,2.43
2023-05-16T21:10:20.146Z,2.47
2023-05-16T21:12:46.917Z,2.90
2023-05-16T21:15:13.353Z,2.53
2023-05-16T21:17:40.781Z,2.67
2023-05-16T21:20:08.806Z,2.10
2023-05-16T21:22:35.577Z,2.30
2023-05-16T21:25:02.065Z,4.40
2023-05-16T21:27:28.590Z,2.47
2023-05-16T21:29:55.201Z,2.33
2023-05-16T21:32:21.617Z,2.43
2023-05-16T21:34:47.994Z,2.60
2023-05-16T21:37:14.694Z,2.80
2023-05-16T21:39:41.331Z,2.50
2023-05-16T21:42:07.802Z,2.73
2023-05-16T21:44:34.280Z,2.70
2023-05-16T21:47:00.914Z,2.20
2023-05-16T21:49:27.330Z,3.30
2023-05-16T21:51:53.711Z,3.10
2023-05-16T21:54:20.084Z,2.90
2023-05-16T21:56:46.579Z,2.53
2023-05-16T21:59:13.843Z,3.27
2023-05-16T22:01:40.237Z,2.73
2023-05-16T22:04:06.823Z,3.87
2023-05-16T22:06:33.400Z,3.60
2023-05-16T22:09:01.390Z,3.10
2023-05-16T22:11:27.880Z,3.97
2023-05-16T22:13:54.266Z,3.37
2023-05-16T22:16:20.641Z,3.93
2023-05-16T22:18:47.384Z,3.47
2023-05-16T22:21:15.991Z,3.17
2023-05-16T22:23:42.691Z,2.23
2023-05-16T22:26:09.082Z,2.23
2023-05-16T22:28:35.546Z,2.60
2023-05-16T22:31:01.910Z,3.53
2023-05-16T22:33:28.472Z,4.23
2023-05-16T22:35:55.058Z,3.60
2023-05-16T22:38:21.461Z,4.13
2023-05-16T22:40:47.814Z,3.27
2023-05-16T22:43:14.225Z,3.67
2023-05-16T22:45:40.760Z,4.40
2023-05-16T22:48:07.252Z,5.03
2023-05-16T22:50:33.773Z,3.43
2023-05-16T22:53:00.241Z,2.70
2023-05-16T22:55:26.820Z,2.43
2023-05-16T22:57:56.914Z,3.40
2023-05-16T23:00:23.518Z,3.67
2023-05-16T23:02:50.005Z,3.20
2023-05-16T23:05:16.819Z,2.37
2023-05-16T23:07:43.233Z,3.77
2023-05-16T23:10:09.795Z,2.80
2023-05-16T23:12:36.155Z,3.90
2023-05-16T23:15:03.152Z,4.00
2023-05-16T23:17:29.671Z,3.17
2023-05-16T23:19:56.330Z,2.80
2023-05-16T23:22:22.840Z,3.47
2023-05-16T23:24:49.203Z,3.60
2023-05-16T23:27:15.564Z,3.63
2023-05-16T23:29:42.059Z,3.53
2023-05-16T23:32:08.460Z,3.60
2023-05-16T23:34:34.838Z,4.37
2023-05-16T23:37:01.390Z,3.83
2023-05-16T23:39:27.815Z,3.93
2023-05-16T23:41:54.277Z,4.87
2023-05-16T23:44:20.682Z,3.97
2023-05-16T23:46:47.050Z,3.50
2023-05-16T23:49:13.451Z,3.80
2023-05-16T23:51:55.834Z,3.97
2023-05-16T23:54:23.065Z,3.60
2023-05-16T23:56:49.595Z,3.90
2023-05-16T23:59:16.349Z,4.00
